sensor_id;sensor_type;location;lat;lon;timestamp;P1;durP1;ratioP1;P2;durP2;ratioP2
11283;SDS011;5698;47.332;11.180;2023-04-03T00:01:47;0.40;;;0.40;;
11283;SDS011;5698;47.332;11.180;2023-04-03T00:04:14;0.40;;;0.40;;
11283;SDS011;5698;47.332;11.180;2023-04-03T00:06:41;0.47;;;0.47;;
11283;SDS011;5698;47.332;11.180;2023-04-03T00:09:08;0.33;;;0.33;;
11283;SDS011;5698;47.332;11.180;2023-04-03T00:11:36;0.40;;;0.40;;
11283;SDS011;5698;47.332;11.180;2023-04-03T00:14:03;0.50;;;0.50;;
11283;SDS011;5698;47.332;11.180;2023-04-03T00:16:30;0.47;;;0.47;;
11283;SDS011;5698;47.332;11.180;2023-04-03T00:18:57;0.40;;;0.40;;
11283;SDS011;5698;47.332;11.180;2023-04-03T00:21:24;0.40;;;0.40;;
11283;SDS011;5698;47.332;11.180;2023-04-03T00:23:51;0.40;;;0.40;;
11283;SDS011;5698;47.332;11.180;2023-04-03T00:26:18;0.40;;;0.40;;
11283;SDS011;5698;47.332;11.180;2023-04-03T00:28:47;0.50;;;0.50;;
11283;SDS011;5698;47.332;11.180;2023-04-03T00:31:14;0.40;;;0.40;;
11283;SDS011;5698;47.332;11.180;2023-04-03T00:33:41;0.40;;;0.40;;
11283;SDS011;5698;47.332;11.180;2023-04-03T00:36:09;0.40;;;0.40;;
11283;SDS011;5698;47.332;11.180;2023-04-03T00:38:36;0.60;;;0.60;;
11283;SDS011;5698;47.332;11.180;2023-04-03T00:41:03;0.60;;;0.60;;
11283;SDS011;5698;47.332;11.180;2023-04-03T00:43:30;0.50;;;0.50;;
11283;SDS011;5698;47.332;11.180;2023-04-03T00:45:59;0.40;;;0.40;;
11283;SDS011;5698;47.332;11.180;2023-04-03T00:48:27;0.57;;;0.57;;
11283;SDS011;5698;47.332;11.180;2023-04-03T00:50:57;0.50;;;0.50;;
11283;SDS011;5698;47.332;11.180;2023-04-03T00:53:26;0.50;;;0.50;;
11283;SDS011;5698;47.332;11.180;2023-04-03T00:55:56;0.40;;;0.40;;
11283;SDS011;5698;47.332;11.180;2023-04-03T00:58:26;0.33;;;0.33;;
11283;SDS011;5698;47.332;11.180;2023-04-03T01:00:59;0.50;;;0.50;;
11283;SDS011;5698;47.332;11.180;2023-04-03T01:03:29;0.40;;;0.40;;
11283;SDS011;5698;47.332;11.180;2023-04-03T01:05:57;0.50;;;0.50;;
11283;SDS011;5698;47.332;11.180;2023-04-03T01:08:24;0.70;;;0.70;;
11283;SDS011;5698;47.332;11.180;2023-04-03T01:10:51;0.60;;;0.60;;
11283;SDS011;5698;47.332;11.180;2023-04-03T01:13:23;0.60;;;0.60;;
11283;SDS011;5698;47.332;11.180;2023-04-03T01:15:51;1.13;;;1.03;;
11283;SDS011;5698;47.332;11.180;2023-04-03T01:18:20;1.00;;;0.90;;
11283;SDS011;5698;47.332;11.180;2023-04-03T01:20:58;0.63;;;0.63;;
11283;SDS011;5698;47.332;11.180;2023-04-03T01:23:50;0.60;;;0.60;;
11283;SDS011;5698;47.332;11.180;2023-04-03T01:26:24;0.70;;;0.70;;
11283;SDS011;5698;47.332;11.180;2023-04-03T01:28:53;0.70;;;0.70;;
11283;SDS011;5698;47.332;11.180;2023-04-03T01:31:22;0.70;;;0.70;;
11283;SDS011;5698;47.332;11.180;2023-04-03T01:33:53;0.87;;;0.87;;
11283;SDS011;5698;47.332;11.180;2023-04-03T01:36:22;0.83;;;0.83;;
11283;SDS011;5698;47.332;11.180;2023-04-03T01:38:50;0.80;;;0.80;;
11283;SDS011;5698;47.332;11.180;2023-04-03T01:41:18;1.00;;;0.90;;
11283;SDS011;5698;47.332;11.180;2023-04-03T01:43:46;1.00;;;0.90;;
11283;SDS011;5698;47.332;11.180;2023-04-03T01:46:13;0.90;;;0.90;;
11283;SDS011;5698;47.332;11.180;2023-04-03T01:48:41;1.00;;;1.00;;
11283;SDS011;5698;47.332;11.180;2023-04-03T01:51:10;1.03;;;1.00;;
11283;SDS011;5698;47.332;11.180;2023-04-03T01:53:36;0.90;;;0.90;;
11283;SDS011;5698;47.332;11.180;2023-04-03T01:56:04;1.10;;;1.10;;
11283;SDS011;5698;47.332;11.180;2023-04-03T01:58:31;1.03;;;1.03;;
11283;SDS011;5698;47.332;11.180;2023-04-03T02:00:58;1.30;;;1.20;;
11283;SDS011;5698;47.332;11.180;2023-04-03T02:03:25;1.30;;;1.20;;
11283;SDS011;5698;47.332;11.180;2023-04-03T02:05:52;1.40;;;1.30;;
11283;SDS011;5698;47.332;11.180;2023-04-03T02:08:21;1.13;;;1.03;;
11283;SDS011;5698;47.332;11.180;2023-04-03T02:10:48;1.40;;;1.30;;
11283;SDS011;5698;47.332;11.180;2023-04-03T02:13:16;1.30;;;1.20;;
11283;SDS011;5698;47.332;11.180;2023-04-03T02:15:43;1.50;;;1.40;;
11283;SDS011;5698;47.332;11.180;2023-04-03T02:18:11;1.57;;;1.30;;
11283;SDS011;5698;47.332;11.180;2023-04-03T02:20:38;1.57;;;1.47;;
11283;SDS011;5698;47.332;11.180;2023-04-03T02:23:05;1.40;;;1.30;;
11283;SDS011;5698;47.332;11.180;2023-04-03T02:25:34;1.43;;;1.33;;
11283;SDS011;5698;47.332;11.180;2023-04-03T02:28:01;1.60;;;1.50;;
11283;SDS011;5698;47.332;11.180;2023-04-03T02:30:28;1.50;;;1.40;;
11283;SDS011;5698;47.332;11.180;2023-04-03T02:32:55;1.77;;;1.67;;
11283;SDS011;5698;47.332;11.180;2023-04-03T02:35:22;1.50;;;1.40;;
11283;SDS011;5698;47.332;11.180;2023-04-03T02:37:49;1.30;;;1.20;;
11283;SDS011;5698;47.332;11.180;2023-04-03T02:40:16;1.90;;;1.80;;
11283;SDS011;5698;47.332;11.180;2023-04-03T02:42:44;2.20;;;2.00;;
11283;SDS011;5698;47.332;11.180;2023-04-03T02:45:11;1.40;;;1.30;;
11283;SDS011;5698;47.332;11.180;2023-04-03T02:47:38;1.50;;;1.40;;
11283;SDS011;5698;47.332;11.180;2023-04-03T02:50:06;1.60;;;1.50;;
11283;SDS011;5698;47.332;11.180;2023-04-03T02:52:34;1.70;;;1.60;;
11283;SDS011;5698;47.332;11.180;2023-04-03T02:55:01;1.40;;;1.30;;
11283;SDS011;5698;47.332;11.180;2023-04-03T02:57:28;1.53;;;1.43;;
11283;SDS011;5698;47.332;11.180;2023-04-03T02:59:57;1.67;;;1.57;;
11283;SDS011;5698;47.332;11.180;2023-04-03T03:02:24;1.73;;;1.63;;
11283;SDS011;5698;47.332;11.180;2023-04-03T03:04:50;1.80;;;1.70;;
11283;SDS011;5698;47.332;11.180;2023-04-03T03:07:17;1.87;;;1.77;;
11283;SDS011;5698;47.332;11.180;2023-04-03T03:09:44;1.80;;;1.70;;
11283;SDS011;5698;47.332;11.180;2023-04-03T03:12:11;1.67;;;1.57;;
11283;SDS011;5698;47.332;11.180;2023-04-03T03:14:38;1.70;;;1.57;;
11283;SDS011;5698;47.332;11.180;2023-04-03T03:17:07;1.90;;;1.80;;
11283;SDS011;5698;47.332;11.180;2023-04-03T03:19:34;1.57;;;1.47;;
11283;SDS011;5698;47.332;11.180;2023-04-03T03:22:01;2.00;;;1.90;;
11283;SDS011;5698;47.332;11.180;2023-04-03T03:24:28;1.53;;;1.43;;
11283;SDS011;5698;47.332;11.180;2023-04-03T03:26:55;1.70;;;1.60;;
11283;SDS011;5698;47.332;11.180;2023-04-03T03:29:22;1.63;;;1.53;;
11283;SDS011;5698;47.332;11.180;2023-04-03T03:31:49;1.80;;;1.70;;
11283;SDS011;5698;47.332;11.180;2023-04-03T03:34:17;1.30;;;1.20;;
11283;SDS011;5698;47.332;11.180;2023-04-03T03:36:44;1.40;;;1.30;;
11283;SDS011;5698;47.332;11.180;2023-04-03T03:39:12;1.90;;;1.80;;
11283;SDS011;5698;47.332;11.180;2023-04-03T03:41:39;1.50;;;1.40;;
11283;SDS011;5698;47.332;11.180;2023-04-03T03:44:06;1.80;;;1.70;;
11283;SDS011;5698;47.332;11.180;2023-04-03T03:46:33;2.10;;;2.00;;
11283;SDS011;5698;47.332;11.180;2023-04-03T03:49:00;1.93;;;1.83;;
11283;SDS011;5698;47.332;11.180;2023-04-03T03:51:28;2.30;;;2.10;;
11283;SDS011;5698;47.332;11.180;2023-04-03T03:53:55;1.77;;;1.67;;
11283;SDS011;5698;47.332;11.180;2023-04-03T03:56:22;2.10;;;2.00;;
11283;SDS011;5698;47.332;11.180;2023-04-03T03:58:50;2.43;;;2.23;;
11283;SDS011;5698;47.332;11.180;2023-04-03T04:01:17;2.00;;;1.90;;
11283;SDS011;5698;47.332;11.180;2023-04-03T04:03:44;2.70;;;2.50;;
11283;SDS011;5698;47.332;11.180;2023-04-03T04:06:12;2.30;;;2.10;;
11283;SDS011;5698;47.332;11.180;2023-04-03T04:08:40;2.47;;;2.27;;
11283;SDS011;5698;47.332;11.180;2023-04-03T04:11:07;2.40;;;2.20;;
11283;SDS011;5698;47.332;11.180;2023-04-03T04:13:35;2.57;;;2.37;;
11283;SDS011;5698;47.332;11.180;2023-04-03T04:16:02;2.37;;;2.27;;
11283;SDS011;5698;47.332;11.180;2023-04-03T04:18:29;2.23;;;2.10;;
11283;SDS011;5698;47.332;11.180;2023-04-03T04:20:56;2.37;;;2.23;;
11283;SDS011;5698;47.332;11.180;2023-04-03T04:23:23;2.10;;;2.00;;
11283;SDS011;5698;47.332;11.180;2023-04-03T04:25:51;2.77;;;2.57;;
11283;SDS011;5698;47.332;11.180;2023-04-03T04:28:18;2.73;;;2.53;;
11283;SDS011;5698;47.332;11.180;2023-04-03T04:30:45;2.90;;;2.70;;
11283;SDS011;5698;47.332;11.180;2023-04-03T04:33:13;2.30;;;2.10;;
11283;SDS011;5698;47.332;11.180;2023-04-03T04:35:41;2.50;;;2.30;;
11283;SDS011;5698;47.332;11.180;2023-04-03T04:38:08;2.37;;;2.23;;
11283;SDS011;5698;47.332;11.180;2023-04-03T04:40:35;2.80;;;2.60;;
11283;SDS011;5698;47.332;11.180;2023-04-03T04:43:04;2.70;;;2.17;;
11283;SDS011;5698;47.332;11.180;2023-04-03T04:45:31;3.13;;;2.87;;
11283;SDS011;5698;47.332;11.180;2023-04-03T04:47:58;2.67;;;2.47;;
11283;SDS011;5698;47.332;11.180;2023-04-03T04:50:25;2.83;;;2.63;;
11283;SDS011;5698;47.332;11.180;2023-04-03T04:52:52;2.87;;;2.67;;
11283;SDS011;5698;47.332;11.180;2023-04-03T04:55:19;2.70;;;2.50;;
11283;SDS011;5698;47.332;11.180;2023-04-03T04:57:46;2.30;;;2.13;;
11283;SDS011;5698;47.332;11.180;2023-04-03T05:00:15;3.07;;;2.70;;
11283;SDS011;5698;47.332;11.180;2023-04-03T05:02:42;2.70;;;2.50;;
11283;SDS011;5698;47.332;11.180;2023-04-03T05:05:09;2.70;;;2.50;;
11283;SDS011;5698;47.332;11.180;2023-04-03T05:07:36;2.50;;;2.30;;
11283;SDS011;5698;47.332;11.180;2023-04-03T05:10:04;2.90;;;2.70;;
11283;SDS011;5698;47.332;11.180;2023-04-03T05:12:32;3.00;;;2.80;;
11283;SDS011;5698;47.332;11.180;2023-04-03T05:14:59;2.47;;;2.30;;
11283;SDS011;5698;47.332;11.180;2023-04-03T05:17:28;3.10;;;2.90;;
11283;SDS011;5698;47.332;11.180;2023-04-03T05:19:55;3.00;;;2.57;;
11283;SDS011;5698;47.332;11.180;2023-04-03T05:22:21;2.00;;;1.90;;
11283;SDS011;5698;47.332;11.180;2023-04-03T05:24:48;2.97;;;2.70;;
11283;SDS011;5698;47.332;11.180;2023-04-03T05:27:15;2.00;;;1.90;;
11283;SDS011;5698;47.332;11.180;2023-04-03T05:29:43;1.93;;;1.80;;
11283;SDS011;5698;47.332;11.180;2023-04-03T05:32:10;2.00;;;1.83;;
11283;SDS011;5698;47.332;11.180;2023-04-03T05:34:38;2.47;;;2.27;;
11283;SDS011;5698;47.332;11.180;2023-04-03T05:37:05;2.70;;;2.50;;
11283;SDS011;5698;47.332;11.180;2023-04-03T05:39:32;2.33;;;2.13;;
11283;SDS011;5698;47.332;11.180;2023-04-03T05:41:59;3.10;;;2.80;;
11283;SDS011;5698;47.332;11.180;2023-04-03T05:44:26;2.50;;;2.30;;
11283;SDS011;5698;47.332;11.180;2023-04-03T05:46:53;2.70;;;2.50;;
11283;SDS011;5698;47.332;11.180;2023-04-03T05:49:20;2.47;;;2.27;;
11283;SDS011;5698;47.332;11.180;2023-04-03T05:51:48;3.20;;;2.90;;
11283;SDS011;5698;47.332;11.180;2023-04-03T05:54:17;3.20;;;2.90;;
11283;SDS011;5698;47.332;11.180;2023-04-03T05:56:48;2.17;;;1.97;;
11283;SDS011;5698;47.332;11.180;2023-04-03T05:59:15;2.27;;;2.07;;
11283;SDS011;5698;47.332;11.180;2023-04-03T06:01:42;2.13;;;1.93;;
11283;SDS011;5698;47.332;11.180;2023-04-03T06:04:09;2.13;;;2.00;;
11283;SDS011;5698;47.332;11.180;2023-04-03T06:06:43;2.10;;;1.90;;
11283;SDS011;5698;47.332;11.180;2023-04-03T06:09:14;1.90;;;1.80;;
11283;SDS011;5698;47.332;11.180;2023-04-03T06:11:42;1.83;;;1.73;;
11283;SDS011;5698;47.332;11.180;2023-04-03T06:14:09;1.80;;;1.70;;
11283;SDS011;5698;47.332;11.180;2023-04-03T06:16:37;1.70;;;1.60;;
11283;SDS011;5698;47.332;11.180;2023-04-03T06:19:04;1.90;;;1.80;;
11283;SDS011;5698;47.332;11.180;2023-04-03T06:21:31;1.90;;;1.80;;
11283;SDS011;5698;47.332;11.180;2023-04-03T06:23:59;1.90;;;1.80;;
11283;SDS011;5698;47.332;11.180;2023-04-03T06:26:27;1.83;;;1.73;;
11283;SDS011;5698;47.332;11.180;2023-04-03T06:28:54;2.00;;;1.90;;
11283;SDS011;5698;47.332;11.180;2023-04-03T06:31:22;2.07;;;1.97;;
11283;SDS011;5698;47.332;11.180;2023-04-03T06:33:49;1.87;;;1.77;;
11283;SDS011;5698;47.332;11.180;2023-04-03T06:36:17;1.90;;;1.80;;
11283;SDS011;5698;47.332;11.180;2023-04-03T06:38:46;1.80;;;1.70;;
11283;SDS011;5698;47.332;11.180;2023-04-03T06:41:13;2.10;;;2.00;;
11283;SDS011;5698;47.332;11.180;2023-04-03T06:43:42;1.90;;;1.80;;
11283;SDS011;5698;47.332;11.180;2023-04-03T06:46:12;1.87;;;1.77;;
11283;SDS011;5698;47.332;11.180;2023-04-03T06:48:41;2.07;;;1.97;;
11283;SDS011;5698;47.332;11.180;2023-04-03T06:51:12;1.70;;;1.60;;
11283;SDS011;5698;47.332;11.180;2023-04-03T06:53:43;1.77;;;1.53;;
11283;SDS011;5698;47.332;11.180;2023-04-03T06:56:11;1.63;;;1.53;;
11283;SDS011;5698;47.332;11.180;2023-04-03T06:58:38;1.40;;;1.30;;
11283;SDS011;5698;47.332;11.180;2023-04-03T07:01:07;1.60;;;1.50;;
11283;SDS011;5698;47.332;11.180;2023-04-03T07:03:34;1.60;;;1.50;;
11283;SDS011;5698;47.332;11.180;2023-04-03T07:06:01;1.43;;;1.33;;
11283;SDS011;5698;47.332;11.180;2023-04-03T07:08:29;1.70;;;1.60;;
11283;SDS011;5698;47.332;11.180;2023-04-03T07:10:56;2.03;;;1.83;;
11283;SDS011;5698;47.332;11.180;2023-04-03T07:13:23;1.90;;;1.80;;
11283;SDS011;5698;47.332;11.180;2023-04-03T07:15:50;1.83;;;1.73;;
11283;SDS011;5698;47.332;11.180;2023-04-03T07:18:19;1.93;;;1.83;;
11283;SDS011;5698;47.332;11.180;2023-04-03T07:20:46;1.63;;;1.53;;
11283;SDS011;5698;47.332;11.180;2023-04-03T07:23:13;1.70;;;1.60;;
11283;SDS011;5698;47.332;11.180;2023-04-03T07:25:42;2.40;;;2.20;;
11283;SDS011;5698;47.332;11.180;2023-04-03T07:28:10;1.83;;;1.73;;
11283;SDS011;5698;47.332;11.180;2023-04-03T07:30:41;1.70;;;1.60;;
11283;SDS011;5698;47.332;11.180;2023-04-03T07:33:10;3.90;;;2.20;;
11283;SDS011;5698;47.332;11.180;2023-04-03T07:35:39;1.30;;;1.20;;
11283;SDS011;5698;47.332;11.180;2023-04-03T07:38:07;1.47;;;1.37;;
11283;SDS011;5698;47.332;11.180;2023-04-03T07:40:34;1.80;;;1.50;;
11283;SDS011;5698;47.332;11.180;2023-04-03T07:43:02;1.93;;;1.80;;
11283;SDS011;5698;47.332;11.180;2023-04-03T07:45:30;1.40;;;1.30;;
11283;SDS011;5698;47.332;11.180;2023-04-03T07:47:58;1.83;;;1.73;;
11283;SDS011;5698;47.332;11.180;2023-04-03T07:50:25;1.53;;;1.43;;
11283;SDS011;5698;47.332;11.180;2023-04-03T07:52:53;1.47;;;1.37;;
11283;SDS011;5698;47.332;11.180;2023-04-03T07:55:22;2.10;;;1.77;;
11283;SDS011;5698;47.332;11.180;2023-04-03T07:57:49;1.40;;;1.30;;
11283;SDS011;5698;47.332;11.180;2023-04-03T08:00:17;1.67;;;1.57;;
11283;SDS011;5698;47.332;11.180;2023-04-03T08:02:44;0.90;;;0.90;;
11283;SDS011;5698;47.332;11.180;2023-04-03T08:05:15;1.00;;;1.00;;
11283;SDS011;5698;47.332;11.180;2023-04-03T08:07:42;1.20;;;1.10;;
11283;SDS011;5698;47.332;11.180;2023-04-03T08:10:11;1.00;;;1.00;;
11283;SDS011;5698;47.332;11.180;2023-04-03T08:12:38;1.20;;;1.10;;
11283;SDS011;5698;47.332;11.180;2023-04-03T08:15:05;0.90;;;0.90;;
11283;SDS011;5698;47.332;11.180;2023-04-03T08:17:33;1.37;;;1.27;;
11283;SDS011;5698;47.332;11.180;2023-04-03T08:20:00;1.10;;;1.00;;
11283;SDS011;5698;47.332;11.180;2023-04-03T08:22:29;1.13;;;1.03;;
11283;SDS011;5698;47.332;11.180;2023-04-03T08:24:56;0.90;;;0.90;;
11283;SDS011;5698;47.332;11.180;2023-04-03T08:27:24;1.03;;;1.00;;
11283;SDS011;5698;47.332;11.180;2023-04-03T08:29:52;1.20;;;1.07;;
11283;SDS011;5698;47.332;11.180;2023-04-03T08:32:19;0.80;;;0.80;;
11283;SDS011;5698;47.332;11.180;2023-04-03T08:34:46;0.80;;;0.80;;
11283;SDS011;5698;47.332;11.180;2023-04-03T08:37:13;1.30;;;1.10;;
11283;SDS011;5698;47.332;11.180;2023-04-03T08:39:41;0.97;;;0.83;;
11283;SDS011;5698;47.332;11.180;2023-04-03T08:42:12;0.90;;;0.90;;
11283;SDS011;5698;47.332;11.180;2023-04-03T08:44:47;0.93;;;0.90;;
11283;SDS011;5698;47.332;11.180;2023-04-03T08:47:23;0.97;;;0.97;;
11283;SDS011;5698;47.332;11.180;2023-04-03T08:49:57;0.97;;;0.90;;
11283;SDS011;5698;47.332;11.180;2023-04-03T08:52:27;0.97;;;0.90;;
11283;SDS011;5698;47.332;11.180;2023-04-03T08:55:02;1.10;;;1.00;;
11283;SDS011;5698;47.332;11.180;2023-04-03T08:57:33;0.77;;;0.77;;
11283;SDS011;5698;47.332;11.180;2023-04-03T09:00:05;0.90;;;0.90;;
11283;SDS011;5698;47.332;11.180;2023-04-03T09:02:42;1.13;;;1.10;;
11283;SDS011;5698;47.332;11.180;2023-04-03T09:05:13;1.10;;;0.80;;
11283;SDS011;5698;47.332;11.180;2023-04-03T09:07:42;0.70;;;0.70;;
11283;SDS011;5698;47.332;11.180;2023-04-03T09:10:13;0.70;;;0.70;;
11283;SDS011;5698;47.332;11.180;2023-04-03T09:12:42;1.47;;;0.70;;
11283;SDS011;5698;47.332;11.180;2023-04-03T09:15:17;0.80;;;0.80;;
11283;SDS011;5698;47.332;11.180;2023-04-03T09:17:52;1.20;;;0.90;;
11283;SDS011;5698;47.332;11.180;2023-04-03T09:20:26;1.00;;;0.90;;
11283;SDS011;5698;47.332;11.180;2023-04-03T09:23:04;1.07;;;1.07;;
11283;SDS011;5698;47.332;11.180;2023-04-03T09:25:40;1.80;;;0.80;;
11283;SDS011;5698;47.332;11.180;2023-04-03T09:28:09;0.90;;;0.90;;
11283;SDS011;5698;47.332;11.180;2023-04-03T09:30:38;0.70;;;0.70;;
11283;SDS011;5698;47.332;11.180;2023-04-03T09:33:06;0.97;;;0.90;;
11283;SDS011;5698;47.332;11.180;2023-04-03T09:35:35;0.70;;;0.70;;
11283;SDS011;5698;47.332;11.180;2023-04-03T09:38:14;0.80;;;0.80;;
11283;SDS011;5698;47.332;11.180;2023-04-03T09:40:44;0.70;;;0.70;;
11283;SDS011;5698;47.332;11.180;2023-04-03T09:43:20;0.80;;;0.80;;
11283;SDS011;5698;47.332;11.180;2023-04-03T09:45:53;1.00;;;1.00;;
11283;SDS011;5698;47.332;11.180;2023-04-03T09:48:23;1.10;;;1.00;;
11283;SDS011;5698;47.332;11.180;2023-04-03T09:50:55;0.83;;;0.70;;
11283;SDS011;5698;47.332;11.180;2023-04-03T09:53:26;1.37;;;1.10;;
11283;SDS011;5698;47.332;11.180;2023-04-03T09:55:58;1.40;;;0.90;;
11283;SDS011;5698;47.332;11.180;2023-04-03T09:58:26;0.90;;;0.90;;
11283;SDS011;5698;47.332;11.180;2023-04-03T10:00:57;0.97;;;0.70;;
11283;SDS011;5698;47.332;11.180;2023-04-03T10:03:27;0.73;;;0.73;;
11283;SDS011;5698;47.332;11.180;2023-04-03T10:05:56;0.90;;;0.90;;
11283;SDS011;5698;47.332;11.180;2023-04-03T10:08:25;1.10;;;1.00;;
11283;SDS011;5698;47.332;11.180;2023-04-03T10:11:11;0.90;;;0.90;;
11283;SDS011;5698;47.332;11.180;2023-04-03T10:13:50;1.27;;;0.90;;
11283;SDS011;5698;47.332;11.180;2023-04-03T10:16:25;0.87;;;0.87;;
11283;SDS011;5698;47.332;11.180;2023-04-03T10:19:18;1.37;;;1.27;;
11283;SDS011;5698;47.332;11.180;2023-04-03T10:21:59;1.50;;;1.30;;
11283;SDS011;5698;47.332;11.180;2023-04-03T10:24:31;1.20;;;1.10;;
11283;SDS011;5698;47.332;11.180;2023-04-03T10:27:07;1.40;;;1.30;;
11283;SDS011;5698;47.332;11.180;2023-04-03T10:29:39;1.20;;;1.10;;
11283;SDS011;5698;47.332;11.180;2023-04-03T10:32:23;1.30;;;1.20;;
11283;SDS011;5698;47.332;11.180;2023-04-03T10:35:16;1.50;;;1.40;;
11283;SDS011;5698;47.332;11.180;2023-04-03T10:37:52;1.70;;;1.37;;
11283;SDS011;5698;47.332;11.180;2023-04-03T10:40:29;1.30;;;1.20;;
11283;SDS011;5698;47.332;11.180;2023-04-03T10:43:03;1.50;;;1.40;;
11283;SDS011;5698;47.332;11.180;2023-04-03T10:45:43;1.07;;;1.07;;
11283;SDS011;5698;47.332;11.180;2023-04-03T10:48:24;1.40;;;1.30;;
11283;SDS011;5698;47.332;11.180;2023-04-03T10:51:06;1.30;;;1.20;;
11283;SDS011;5698;47.332;11.180;2023-04-03T10:53:47;1.37;;;1.27;;
11283;SDS011;5698;47.332;11.180;2023-04-03T10:56:19;1.50;;;1.40;;
11283;SDS011;5698;47.332;11.180;2023-04-03T10:58:53;1.20;;;1.10;;
11283;SDS011;5698;47.332;11.180;2023-04-03T11:01:24;1.43;;;1.23;;
11283;SDS011;5698;47.332;11.180;2023-04-03T11:03:59;1.23;;;1.13;;
11283;SDS011;5698;47.332;11.180;2023-04-03T11:06:31;1.20;;;1.10;;
11283;SDS011;5698;47.332;11.180;2023-04-03T11:09:03;1.10;;;1.03;;
11283;SDS011;5698;47.332;11.180;2023-04-03T11:11:34;1.00;;;1.00;;
11283;SDS011;5698;47.332;11.180;2023-04-03T11:14:05;1.20;;;1.10;;
11283;SDS011;5698;47.332;11.180;2023-04-03T11:16:42;1.37;;;1.27;;
11283;SDS011;5698;47.332;11.180;2023-04-03T11:19:15;1.40;;;1.30;;
11283;SDS011;5698;47.332;11.180;2023-04-03T11:21:50;1.27;;;1.17;;
11283;SDS011;5698;47.332;11.180;2023-04-03T11:24:24;1.60;;;1.50;;
11283;SDS011;5698;47.332;11.180;2023-04-03T11:26:53;2.27;;;1.60;;
11283;SDS011;5698;47.332;11.180;2023-04-03T11:29:22;1.70;;;1.60;;
11283;SDS011;5698;47.332;11.180;2023-04-03T11:32:02;1.40;;;1.30;;
11283;SDS011;5698;47.332;11.180;2023-04-03T11:34:39;1.70;;;1.50;;
11283;SDS011;5698;47.332;11.180;2023-04-03T11:37:12;1.50;;;1.40;;
11283;SDS011;5698;47.332;11.180;2023-04-03T11:39:47;1.43;;;1.33;;
11283;SDS011;5698;47.332;11.180;2023-04-03T11:42:24;1.47;;;1.20;;
11283;SDS011;5698;47.332;11.180;2023-04-03T11:45:17;2.20;;;1.30;;
11283;SDS011;5698;47.332;11.180;2023-04-03T11:47:56;1.20;;;1.20;;
11283;SDS011;5698;47.332;11.180;2023-04-03T11:50:37;1.50;;;1.40;;
11283;SDS011;5698;47.332;11.180;2023-04-03T12:01:44;1.40;;;1.30;;
11283;SDS011;5698;47.332;11.180;2023-04-03T12:04:13;1.40;;;1.30;;
11283;SDS011;5698;47.332;11.180;2023-04-03T12:18:36;1.77;;;1.67;;
11283;SDS011;5698;47.332;11.180;2023-04-03T12:21:10;7.00;;;2.10;;
11283;SDS011;5698;47.332;11.180;2023-04-03T12:26:28;1.60;;;1.50;;
11283;SDS011;5698;47.332;11.180;2023-04-03T12:29:01;1.50;;;1.40;;
11283;SDS011;5698;47.332;11.180;2023-04-03T12:31:38;1.80;;;1.70;;
11283;SDS011;5698;47.332;11.180;2023-04-03T12:34:14;1.83;;;1.40;;
11283;SDS011;5698;47.332;11.180;2023-04-03T12:36:55;1.90;;;1.70;;
11283;SDS011;5698;47.332;11.180;2023-04-03T12:39:48;1.50;;;1.40;;
11283;SDS011;5698;47.332;11.180;2023-04-03T12:42:34;1.57;;;1.47;;
11283;SDS011;5698;47.332;11.180;2023-04-03T12:45:17;1.67;;;1.27;;
11283;SDS011;5698;47.332;11.180;2023-04-03T12:47:48;1.50;;;1.40;;
11283;SDS011;5698;47.332;11.180;2023-04-03T12:50:18;1.40;;;1.30;;
11283;SDS011;5698;47.332;11.180;2023-04-03T12:52:50;1.63;;;1.53;;
11283;SDS011;5698;47.332;11.180;2023-04-03T12:55:21;1.60;;;1.50;;
11283;SDS011;5698;47.332;11.180;2023-04-03T12:57:50;1.80;;;1.33;;
11283;SDS011;5698;47.332;11.180;2023-04-03T13:00:33;1.40;;;1.30;;
11283;SDS011;5698;47.332;11.180;2023-04-03T13:03:04;1.50;;;1.40;;
11283;SDS011;5698;47.332;11.180;2023-04-03T13:05:41;1.57;;;1.47;;
11283;SDS011;5698;47.332;11.180;2023-04-03T13:08:12;1.67;;;1.37;;
11283;SDS011;5698;47.332;11.180;2023-04-03T13:10:43;1.50;;;1.40;;
11283;SDS011;5698;47.332;11.180;2023-04-03T13:13:21;1.53;;;1.43;;
11283;SDS011;5698;47.332;11.180;2023-04-03T13:15:49;1.50;;;1.40;;
11283;SDS011;5698;47.332;11.180;2023-04-03T13:18:21;1.60;;;1.50;;
11283;SDS011;5698;47.332;11.180;2023-04-03T13:20:49;2.03;;;1.93;;
11283;SDS011;5698;47.332;11.180;2023-04-03T13:23:18;1.77;;;1.40;;
11283;SDS011;5698;47.332;11.180;2023-04-03T13:25:48;1.50;;;1.40;;
11283;SDS011;5698;47.332;11.180;2023-04-03T13:28:18;1.60;;;1.50;;
11283;SDS011;5698;47.332;11.180;2023-04-03T13:30:56;1.60;;;1.50;;
11283;SDS011;5698;47.332;11.180;2023-04-03T13:33:28;1.50;;;1.40;;
11283;SDS011;5698;47.332;11.180;2023-04-03T13:36:00;1.80;;;1.60;;
11283;SDS011;5698;47.332;11.180;2023-04-03T13:38:31;1.87;;;1.40;;
11283;SDS011;5698;47.332;11.180;2023-04-03T13:41:00;1.40;;;1.30;;
11283;SDS011;5698;47.332;11.180;2023-04-03T13:43:31;1.23;;;1.17;;
11283;SDS011;5698;47.332;11.180;2023-04-03T13:46:02;1.60;;;1.50;;
11283;SDS011;5698;47.332;11.180;2023-04-03T13:48:48;1.63;;;1.53;;
11283;SDS011;5698;47.332;11.180;2023-04-03T13:51:18;2.20;;;2.00;;
11283;SDS011;5698;47.332;11.180;2023-04-03T13:53:48;1.50;;;1.40;;
11283;SDS011;5698;47.332;11.180;2023-04-03T13:56:24;1.60;;;1.50;;
11283;SDS011;5698;47.332;11.180;2023-04-03T13:58:59;1.70;;;1.60;;
11283;SDS011;5698;47.332;11.180;2023-04-03T14:01:42;1.60;;;1.43;;
11283;SDS011;5698;47.332;11.180;2023-04-03T14:04:12;1.30;;;1.20;;
11283;SDS011;5698;47.332;11.180;2023-04-03T14:06:42;1.80;;;1.70;;
11283;SDS011;5698;47.332;11.180;2023-04-03T14:09:09;1.93;;;1.60;;
11283;SDS011;5698;47.332;11.180;2023-04-03T14:11:36;1.70;;;1.60;;
11283;SDS011;5698;47.332;11.180;2023-04-03T14:14:10;2.20;;;1.73;;
11283;SDS011;5698;47.332;11.180;2023-04-03T14:16:41;1.47;;;1.30;;
11283;SDS011;5698;47.332;11.180;2023-04-03T14:19:13;2.27;;;1.47;;
11283;SDS011;5698;47.332;11.180;2023-04-03T14:21:45;1.63;;;1.53;;
11283;SDS011;5698;47.332;11.180;2023-04-03T14:24:13;2.57;;;2.13;;
11283;SDS011;5698;47.332;11.180;2023-04-03T14:26:40;2.00;;;1.80;;
11283;SDS011;5698;47.332;11.180;2023-04-03T14:29:10;1.60;;;1.50;;
11283;SDS011;5698;47.332;11.180;2023-04-03T14:31:38;1.70;;;1.60;;
11283;SDS011;5698;47.332;11.180;2023-04-03T14:34:05;1.90;;;1.80;;
11283;SDS011;5698;47.332;11.180;2023-04-03T14:36:33;1.70;;;1.60;;
11283;SDS011;5698;47.332;11.180;2023-04-03T14:39:00;1.63;;;1.53;;
11283;SDS011;5698;47.332;11.180;2023-04-03T14:41:27;1.40;;;1.30;;
11283;SDS011;5698;47.332;11.180;2023-04-03T14:43:54;1.70;;;1.60;;
11283;SDS011;5698;47.332;11.180;2023-04-03T14:46:24;1.60;;;1.50;;
11283;SDS011;5698;47.332;11.180;2023-04-03T14:48:54;2.80;;;1.57;;
11283;SDS011;5698;47.332;11.180;2023-04-03T14:51:22;1.50;;;1.40;;
11283;SDS011;5698;47.332;11.180;2023-04-03T14:53:49;1.70;;;1.60;;
11283;SDS011;5698;47.332;11.180;2023-04-03T14:56:17;1.67;;;1.57;;
11283;SDS011;5698;47.332;11.180;2023-04-03T14:58:47;1.70;;;1.60;;
11283;SDS011;5698;47.332;11.180;2023-04-03T15:01:15;1.67;;;1.57;;
11283;SDS011;5698;47.332;11.180;2023-04-03T15:03:44;1.77;;;1.67;;
11283;SDS011;5698;47.332;11.180;2023-04-03T15:06:11;1.60;;;1.50;;
11283;SDS011;5698;47.332;11.180;2023-04-03T15:08:39;1.97;;;1.63;;
11283;SDS011;5698;47.332;11.180;2023-04-03T15:11:07;2.93;;;1.70;;
11283;SDS011;5698;47.332;11.180;2023-04-03T15:13:35;2.37;;;1.80;;
11283;SDS011;5698;47.332;11.180;2023-04-03T15:16:02;2.50;;;1.40;;
11283;SDS011;5698;47.332;11.180;2023-04-03T15:18:31;1.90;;;1.80;;
11283;SDS011;5698;47.332;11.180;2023-04-03T15:21:04;1.77;;;1.67;;
11283;SDS011;5698;47.332;11.180;2023-04-03T15:23:31;2.07;;;1.90;;
11283;SDS011;5698;47.332;11.180;2023-04-03T15:25:58;1.90;;;1.70;;
11283;SDS011;5698;47.332;11.180;2023-04-03T15:28:26;2.00;;;1.80;;